Time;durP1;ratioP1;P1;durP2;ratioP2;P2;SDS_P1;SDS_P2;PMS_P1;PMS_P2;Temp;Humidity;BMP_temperature;BMP_pressure;BME280_temperature;BME280_humidity;BME280_pressure;Samples;Min_cycle;Max_cycle;Signal;HPM_P1;HPM_P2
2022/11/04 00:01:19;;;;;;;2.25;0.40;;;13.30;99.90;;;;;;5070765;28;25102;-76
2022/11/04 00:03:44;;;;;;;1.00;0.55;;;13.10;99.90;;;;;;5067436;28;25100;-77
2022/11/04 00:06:10;;;;;;;1.15;0.50;;;13.10;99.90;;;;;;5076594;28;25078;-76
2022/11/04 00:08:36;;;;;;;1.75;0.40;;;13.00;99.90;;;;;;5049894;28;25055;-76
2022/11/04 00:13:47;;;;;;;2.75;1.33;;;13.00;99.90;;;;;;5050674;28;25091;-77
2022/11/04 00:18:59;;;;;;;2.90;0.60;;;12.90;99.90;;;;;;5072095;28;25116;-75
2022/11/04 00:29:43;;;;;;;1.63;0.60;;;13.00;99.90;;;;;;5068319;28;25146;-75
2022/11/04 00:34:54;;;;;;;2.20;1.10;;;13.10;99.90;;;;;;5071839;28;25115;-75
2022/11/04 00:37:19;;;;;;;3.25;1.00;;;13.00;99.90;;;;;;5068796;28;25132;-76
2022/11/04 00:39:45;;;;;;;1.35;1.00;;;13.10;99.90;;;;;;5068321;28;25058;-77
2022/11/04 00:42:10;;;;;;;3.95;0.90;;;13.00;99.90;;;;;;5068455;28;25074;-75
2022/11/04 00:44:36;;;;;;;1.23;0.80;;;13.00;99.90;;;;;;5068337;28;25081;-75
2022/11/04 00:47:02;;;;;;;1.67;0.88;;;13.10;99.90;;;;;;5062618;28;25131;-75
2022/11/04 00:49:28;;;;;;;3.95;0.70;;;13.00;99.90;;;;;;5072987;28;25070;-77
2022/11/04 00:51:53;;;;;;;2.60;0.90;;;13.00;99.90;;;;;;5068098;28;25110;-77
2022/11/04 00:54:19;;;;;;;4.70;0.73;;;12.90;99.90;;;;;;5060315;28;25160;-76
2022/11/04 00:56:45;;;;;;;1.08;0.35;;;12.90;99.90;;;;;;5045070;28;25064;-76
2022/11/04 00:59:10;;;;;;;1.50;0.70;;;12.80;99.90;;;;;;5070863;28;25068;-77
2022/11/04 01:01:36;;;;;;;0.98;0.38;;;12.80;99.90;;;;;;5046687;28;25085;-73
2022/11/04 01:04:01;;;;;;;1.77;0.38;;;12.80;99.90;;;;;;5056596;28;25107;-75
2022/11/04 01:06:27;;;;;;;2.60;0.50;;;12.60;99.90;;;;;;5060800;28;25082;-75
2022/11/04 01:08:59;;;;;;;0.55;0.40;;;12.70;99.90;;;;;;5065501;28;25054;-76
2022/11/04 01:11:27;;;;;;;1.75;0.40;;;12.60;99.90;;;;;;5064647;28;25078;-77
2022/11/04 01:13:53;;;;;;;1.95;0.30;;;12.50;99.90;;;;;;5066714;28;25112;-75
2022/11/04 01:16:18;;;;;;;2.28;0.40;;;12.50;99.90;;;;;;5058329;28;25107;-74
2022/11/04 01:18:44;;;;;;;0.73;0.32;;;12.40;99.90;;;;;;5057316;28;25068;-75
2022/11/04 01:21:15;;;;;;;1.60;0.30;;;12.30;99.90;;;;;;5068026;28;25103;-77
2022/11/04 01:23:42;;;;;;;0.30;0.30;;;12.10;99.90;;;;;;5056875;28;25064;-75
2022/11/04 01:26:10;;;;;;;0.25;0.20;;;12.00;99.90;;;;;;5068451;28;25184;-76
2022/11/04 01:28:36;;;;;;;0.82;0.63;;;11.90;99.90;;;;;;5064803;28;25059;-74
2022/11/04 01:31:09;;;;;;;0.40;0.22;;;12.00;99.90;;;;;;5063684;28;25071;-74
2022/11/04 01:33:36;;;;;;;0.75;0.20;;;11.80;99.90;;;;;;5057006;28;25087;-75
2022/11/04 01:36:03;;;;;;;0.28;0.15;;;11.70;99.90;;;;;;5063001;28;25110;-76
2022/11/04 01:38:29;;;;;;;1.58;0.60;;;11.60;99.90;;;;;;5059796;28;25527;-76
2022/11/04 01:40:54;;;;;;;2.40;0.80;;;11.50;99.90;;;;;;5045047;28;25060;-73
2022/11/04 01:43:21;;;;;;;2.63;1.20;;;11.50;99.90;;;;;;5071041;28;25144;-75
2022/11/04 01:45:51;;;;;;;2.45;1.80;;;11.40;99.90;;;;;;5076098;28;25066;-76
2022/11/04 01:48:29;;;;;;;5.95;2.60;;;11.40;99.90;;;;;;5056924;28;25143;-75
2022/11/04 01:50:55;;;;;;;3.88;3.03;;;11.50;99.90;;;;;;5059837;28;25075;-75
2022/11/04 01:53:27;;;;;;;6.65;3.58;;;11.50;99.90;;;;;;5064051;28;25064;-75
2022/11/04 01:55:56;;;;;;;7.40;3.90;;;11.60;99.90;;;;;;5059018;28;25096;-78
2022/11/04 01:58:34;;;;;;;6.32;3.83;;;11.70;99.90;;;;;;5067583;28;25121;-74
2022/11/04 02:01:01;;;;;;;13.13;4.95;;;11.70;99.90;;;;;;5050467;28;25096;-75
2022/11/04 02:03:34;;;;;;;10.55;4.57;;;11.70;99.90;;;;;;5063326;28;25052;-75
2022/11/04 02:06:00;;;;;;;12.00;5.85;;;11.80;99.90;;;;;;5048190;28;25078;-75
2022/11/04 02:08:27;;;;;;;10.77;5.28;;;11.80;99.90;;;;;;5061236;28;25128;-78
2022/11/04 02:10:59;;;;;;;12.90;6.03;;;11.90;99.90;;;;;;5073865;28;25072;-74
2022/11/04 02:13:27;;;;;;;12.10;5.95;;;11.90;99.90;;;;;;5068718;28;25073;-76
2022/11/04 02:16:12;;;;;;;13.57;6.97;;;12.00;99.90;;;;;;5069021;28;25061;-74
2022/11/04 02:19:13;;;;;;;13.57;6.95;;;12.10;99.90;;;;;;5069155;28;25104;-77
2022/11/04 02:21:55;;;;;;;19.58;6.97;;;12.00;99.90;;;;;;5079960;28;25062;-75
2022/11/04 02:24:50;;;;;;;12.93;6.32;;;12.10;99.90;;;;;;5076367;28;25062;-76
2022/11/04 02:27:47;;;;;;;14.65;7.50;;;12.00;99.90;;;;;;5059720;28;25148;-75
2022/11/04 02:30:18;;;;;;;14.88;7.32;;;12.10;99.90;;;;;;5065986;28;25075;-76
2022/11/04 02:33:05;;;;;;;22.05;8.00;;;12.10;99.90;;;;;;5064475;28;25145;-74
2022/11/04 02:36:23;;;;;;;15.35;8.63;;;12.20;99.90;;;;;;5059702;28;25072;-75
2022/11/04 02:38:58;;;;;;;14.07;7.00;;;12.20;99.90;;;;;;4998268;28;25052;-75
2022/11/04 02:41:48;;;;;;;12.25;5.78;;;12.30;99.90;;;;;;5060876;28;25134;-76
2022/11/04 02:44:27;;;;;;;10.73;5.53;;;12.30;99.90;;;;;;5060890;28;25121;-76
2022/11/04 02:47:00;;;;;;;14.77;6.50;;;12.40;99.90;;;;;;5069104;28;25053;-75
2022/11/04 02:49:42;;;;;;;11.27;5.72;;;12.40;99.90;;;;;;5051347;28;25069;-76
2022/11/04 02:52:13;;;;;;;12.77;6.55;;;12.40;99.90;;;;;;5064635;28;25095;-77
2022/11/04 02:54:54;;;;;;;12.38;5.72;;;12.40;99.90;;;;;;5057371;28;25094;-73
2022/11/04 02:57:24;;;;;;;16.90;7.55;;;12.40;99.90;;;;;;5064188;28;25068;-75
2022/11/04 02:59:58;;;;;;;15.13;6.60;;;12.50;99.90;;;;;;5059570;28;25048;-75
2022/11/04 03:02:33;;;;;;;14.43;7.07;;;12.50;99.90;;;;;;5056487;28;25107;-73
2022/11/04 03:05:01;;;;;;;11.32;6.60;;;12.50;99.90;;;;;;5028938;28;25096;-76
2022/11/04 03:07:31;;;;;;;15.80;6.80;;;12.50;99.90;;;;;;5070549;28;25054;-74
2022/11/04 03:10:01;;;;;;;15.15;6.72;;;12.30;99.90;;;;;;5050752;28;25175;-74
2022/11/04 03:12:31;;;;;;;17.33;7.07;;;12.40;99.90;;;;;;5074730;28;25108;-76
2022/11/04 03:15:05;;;;;;;17.30;7.10;;;12.30;99.90;;;;;;5071893;28;25098;-75
2022/11/04 03:17:51;;;;;;;12.77;7.10;;;12.40;99.90;;;;;;5063774;28;25148;-76
2022/11/04 03:20:21;;;;;;;15.73;6.78;;;12.30;99.90;;;;;;5068993;28;25051;-77
2022/11/04 03:22:47;;;;;;;16.02;8.05;;;12.20;99.90;;;;;;5084796;28;25080;-75
2022/11/04 03:25:13;;;;;;;14.20;7.00;;;12.10;99.90;;;;;;5062277;28;25046;-78
2022/11/04 03:27:52;;;;;;;10.82;6.18;;;12.10;99.90;;;;;;5089450;28;25106;-78
2022/11/04 03:30:20;;;;;;;17.08;6.57;;;12.00;99.90;;;;;;5076059;28;25114;-74
2022/11/04 03:32:46;;;;;;;18.25;5.97;;;11.90;99.90;;;;;;5073995;28;25081;-78
2022/11/04 03:35:15;;;;;;;16.98;7.53;;;11.80;99.90;;;;;;5068796;28;25067;-75
2022/11/04 03:37:41;;;;;;;12.95;5.95;;;11.80;99.90;;;;;;5072641;28;25106;-76
2022/11/04 03:40:08;;;;;;;13.98;6.20;;;11.80;99.90;;;;;;5073080;28;25098;-75
2022/11/04 03:42:39;;;;;;;14.18;5.80;;;11.90;99.90;;;;;;5041269;28;25120;-74
2022/11/04 03:45:05;;;;;;;16.40;5.82;;;11.80;99.90;;;;;;5077134;28;25131;-75
2022/11/04 03:47:31;;;;;;;17.05;5.55;;;11.80;99.90;;;;;;5065518;28;25158;-75
2022/11/04 03:50:27;;;;;;;12.80;4.82;;;11.90;99.90;;;;;;5046527;28;25061;-75
2022/11/04 03:52:53;;;;;;;12.80;5.38;;;11.80;99.90;;;;;;5053814;28;25080;-77
2022/11/04 03:55:19;;;;;;;11.02;5.18;;;11.80;99.90;;;;;;5065143;28;25070;-73
2022/11/04 03:58:05;;;;;;;13.18;5.47;;;11.70;99.90;;;;;;5050349;28;25060;-74
2022/11/04 04:00:43;;;;;;;16.67;5.88;;;11.90;99.90;;;;;;5070953;28;25056;-75
2022/11/04 04:03:19;;;;;;;10.75;4.80;;;11.80;99.90;;;;;;5072975;28;25144;-77
2022/11/04 04:06:15;;;;;;;16.25;6.90;;;11.80;99.90;;;;;;5069294;28;25071;-76
2022/11/04 04:08:57;;;;;;;13.73;5.28;;;11.70;99.90;;;;;;5076737;28;25072;-78
2022/11/04 04:11:51;;;;;;;15.33;5.40;;;11.70;99.90;;;;;;5067029;28;25082;-76
2022/11/04 04:17:16;;;;;;;14.73;5.57;;;11.50;99.90;;;;;;5069279;28;25065;-76
2022/11/04 04:19:51;;;;;;;10.07;4.88;;;11.60;99.90;;;;;;5078863;28;25071;-75
2022/11/04 04:22:22;;;;;;;12.05;4.60;;;11.40;99.90;;;;;;5076716;28;25105;-74
2022/11/04 04:27:38;;;;;;;14.30;4.80;;;11.50;99.90;;;;;;5068347;28;25091;-77
2022/11/04 04:30:07;;;;;;;16.80;5.28;;;11.50;99.90;;;;;;5067083;28;25149;-74
2022/11/04 04:32:47;;;;;;;14.00;5.28;;;11.50;99.90;;;;;;5063723;28;25072;-75
2022/11/04 04:46:27;;;;;;;13.60;4.80;;;11.40;99.90;;;;;;5054232;28;25059;-74
2022/11/04 04:48:53;;;;;;;10.35;5.07;;;11.50;99.90;;;;;;5054141;28;25106;-74
2022/11/04 04:51:19;;;;;;;18.85;4.90;;;11.40;99.90;;;;;;5058783;28;25126;-74
2022/11/04 04:53:45;;;;;;;10.68;5.28;;;11.30;99.90;;;;;;5065052;28;25092;-75
2022/11/04 04:56:10;;;;;;;10.13;4.20;;;11.40;99.90;;;;;;5078075;28;25117;-74
2022/11/04 04:58:36;;;;;;;9.45;4.78;;;11.50;99.90;;;;;;5069483;28;25084;-76
2022/11/04 05:01:03;;;;;;;10.73;4.30;;;11.50;99.90;;;;;;5063955;28;25080;-75
2022/11/04 05:03:28;;;;;;;12.70;5.32;;;11.40;99.90;;;;;;5065474;28;25084;-78
2022/11/04 05:05:54;;;;;;;20.25;5.15;;;11.60;99.90;;;;;;5055146;28;25076;-75
2022/11/04 05:08:19;;;;;;;16.60;5.57;;;11.60;99.90;;;;;;5056217;28;25101;-74
2022/11/04 05:10:45;;;;;;;17.38;5.53;;;11.60;99.90;;;;;;5067000;28;25080;-76
2022/11/04 05:13:28;;;;;;;14.20;5.75;;;11.60;99.90;;;;;;5070387;28;25145;-74
2022/11/04 05:15:56;;;;;;;7.90;5.15;;;11.60;99.90;;;;;;5073016;28;25062;-76
2022/11/04 05:18:22;;;;;;;10.82;5.25;;;11.60;99.90;;;;;;5067015;28;25136;-75
2022/11/04 05:20:47;;;;;;;10.45;5.55;;;11.60;99.90;;;;;;5069896;28;25056;-76
2022/11/04 05:23:13;;;;;;;9.85;4.97;;;11.60;99.90;;;;;;5066939;28;25076;-77
2022/11/04 05:25:40;;;;;;;13.90;5.30;;;11.60;99.90;;;;;;5065488;28;25069;-75
2022/11/04 05:28:06;;;;;;;13.98;4.88;;;11.60;99.90;;;;;;5060385;28;25135;-77
2022/11/04 05:30:33;;;;;;;9.25;4.93;;;11.50;99.90;;;;;;5060366;28;25145;-76
2022/11/04 05:32:59;;;;;;;14.68;5.90;;;11.50;99.90;;;;;;5062902;28;25138;-76
2022/11/04 05:35:25;;;;;;;13.20;5.68;;;11.50;99.90;;;;;;5059471;28;25165;-75
2022/11/04 05:37:50;;;;;;;16.02;5.80;;;11.60;99.90;;;;;;5063438;28;25094;-75
2022/11/04 05:40:16;;;;;;;8.25;4.93;;;11.60;99.90;;;;;;5064525;28;25072;-75
2022/11/04 05:42:42;;;;;;;11.52;5.43;;;11.70;99.90;;;;;;5060528;28;25140;-76
2022/11/04 05:45:08;;;;;;;13.23;5.57;;;11.80;99.90;;;;;;5055333;28;25055;-77
2022/11/04 05:47:34;;;;;;;11.80;5.53;;;11.80;99.90;;;;;;5054152;28;25061;-77
2022/11/04 05:50:00;;;;;;;13.80;5.38;;;11.80;99.90;;;;;;5078193;28;25059;-76
2022/11/04 05:52:25;;;;;;;11.77;5.15;;;11.70;99.90;;;;;;5070639;28;25096;-74
2022/11/04 05:54:51;;;;;;;12.43;5.18;;;11.80;99.90;;;;;;5063397;28;25100;-78
2022/11/04 05:57:16;;;;;;;10.52;4.88;;;11.90;99.90;;;;;;5071088;28;25058;-76
2022/11/04 05:59:42;;;;;;;12.90;4.88;;;12.00;99.90;;;;;;5075397;28;25086;-74
2022/11/04 06:02:08;;;;;;;11.82;5.35;;;12.00;99.90;;;;;;5077208;28;25079;-74
2022/11/04 06:04:34;;;;;;;11.43;5.00;;;12.10;99.90;;;;;;5071060;28;25074;-75
2022/11/04 06:07:01;;;;;;;13.77;5.72;;;12.00;99.90;;;;;;5056952;28;25075;-77
2022/11/04 06:09:38;;;;;;;14.50;6.18;;;12.20;99.90;;;;;;5053119;28;25049;-75
2022/11/04 06:12:05;;;;;;;10.07;4.57;;;12.20;99.90;;;;;;5060731;28;25117;-75
2022/11/04 06:14:31;;;;;;;8.25;4.78;;;12.30;99.90;;;;;;5065555;28;25077;-75
2022/11/04 06:16:56;;;;;;;12.18;5.40;;;12.30;99.90;;;;;;5057741;28;25061;-75
2022/11/04 06:19:22;;;;;;;12.18;4.65;;;12.20;99.90;;;;;;5066471;28;25091;-77
2022/11/04 06:21:48;;;;;;;9.93;4.22;;;12.10;99.90;;;;;;5066065;28;25132;-75
2022/11/04 06:24:13;;;;;;;8.68;4.72;;;12.10;99.90;;;;;;5067757;28;25079;-75
2022/11/04 06:26:39;;;;;;;12.55;4.10;;;12.10;99.90;;;;;;5059987;28;25131;-75
2022/11/04 06:29:04;;;;;;;8.00;4.55;;;12.20;99.90;;;;;;5051199;28;25103;-75
2022/11/04 06:31:30;;;;;;;11.45;4.90;;;12.10;99.90;;;;;;5073492;28;25071;-75
2022/11/04 06:33:55;;;;;;;10.25;4.88;;;12.20;99.90;;;;;;5061882;28;25085;-74
2022/11/04 06:36:21;;;;;;;13.23;5.28;;;12.40;99.90;;;;;;5067052;28;25079;-75
2022/11/04 06:38:46;;;;;;;9.60;4.90;;;12.40;99.90;;;;;;5062422;28;25078;-77
2022/11/04 06:41:14;;;;;;;10.15;4.53;;;12.20;99.90;;;;;;5061226;28;25061;-74
2022/11/04 06:43:40;;;;;;;10.70;4.60;;;12.20;99.90;;;;;;5065547;28;25052;-75
2022/11/04 06:46:22;;;;;;;13.50;4.57;;;12.20;99.90;;;;;;5069489;28;25146;-76
2022/11/04 06:48:47;;;;;;;8.45;4.25;;;12.20;99.90;;;;;;5084624;28;25077;-76
2022/11/04 06:51:13;;;;;;;9.40;4.43;;;12.30;99.90;;;;;;5079871;28;25088;-73
2022/11/04 06:53:38;;;;;;;12.55;4.95;;;12.20;99.90;;;;;;5068418;28;25059;-75
2022/11/04 06:56:05;;;;;;;11.43;5.00;;;12.30;99.90;;;;;;5058965;28;25052;-74
2022/11/04 06:58:31;;;;;;;16.38;5.68;;;12.20;99.90;;;;;;5032368;28;25066;-74
2022/11/04 07:00:56;;;;;;;10.20;4.63;;;12.10;99.90;;;;;;5058601;28;25065;-76
2022/11/04 07:03:22;;;;;;;14.75;5.40;;;12.40;99.90;;;;;;5046198;28;25055;-77
2022/11/04 07:05:48;;;;;;;9.63;5.28;;;12.10;99.90;;;;;;5069142;28;25058;-75
2022/11/04 07:08:13;;;;;;;16.35;5.57;;;12.00;99.90;;;;;;5065529;28;25134;-74
2022/11/04 07:10:39;;;;;;;14.25;5.13;;;12.20;99.90;;;;;;5064889;28;25101;-75
2022/11/04 07:13:05;;;;;;;16.50;5.65;;;12.50;99.90;;;;;;5063032;28;25074;-77
2022/11/04 07:15:32;;;;;;;14.57;5.20;;;12.40;99.90;;;;;;5068265;28;25072;-76
2022/11/04 07:17:58;;;;;;;12.93;5.05;;;12.60;99.90;;;;;;5063961;28;25149;-76
2022/11/04 07:20:24;;;;;;;15.93;5.07;;;12.70;99.90;;;;;;5065047;28;25071;-76
2022/11/04 07:22:50;;;;;;;14.02;5.05;;;12.60;99.90;;;;;;5065904;28;25142;-74
2022/11/04 07:25:15;;;;;;;13.23;4.25;;;12.60;99.90;;;;;;5062688;28;25055;-75
2022/11/04 07:27:41;;;;;;;9.15;4.95;;;12.50;99.90;;;;;;5064814;28;25072;-74
2022/11/04 07:30:07;;;;;;;11.77;4.93;;;12.60;99.90;;;;;;5065181;28;25143;-74
2022/11/04 07:32:33;;;;;;;11.77;4.80;;;12.40;99.90;;;;;;5062613;28;25124;-74
2022/11/04 07:34:58;;;;;;;15.13;5.07;;;12.40;99.90;;;;;;5053541;28;25140;-74
2022/11/04 07:37:24;;;;;;;13.52;4.80;;;12.40;99.90;;;;;;5067379;28;25059;-77
2022/11/04 07:39:50;;;;;;;11.70;4.40;;;12.40;99.90;;;;;;5054490;28;25169;-79
2022/11/04 07:42:15;;;;;;;8.85;4.22;;;12.50;99.90;;;;;;5061839;28;25066;-77
2022/11/04 07:44:41;;;;;;;12.35;4.90;;;12.40;99.90;;;;;;5060053;28;25090;-74
2022/11/04 07:47:06;;;;;;;14.23;5.03;;;12.30;99.90;;;;;;5064122;28;25068;-75
2022/11/04 07:49:32;;;;;;;10.65;5.30;;;12.40;99.90;;;;;;5048960;28;25105;-75
2022/11/04 07:51:58;;;;;;;13.50;4.65;;;12.60;99.90;;;;;;5065163;28;25075;-75
2022/11/04 07:54:23;;;;;;;12.43;4.05;;;12.70;99.90;;;;;;5066315;28;25098;-76
2022/11/04 07:56:49;;;;;;;10.32;3.83;;;12.90;99.90;;;;;;5050948;28;25078;-76
2022/11/04 07:59:14;;;;;;;10.55;5.43;;;12.90;99.90;;;;;;5057414;28;25079;-78
2022/11/04 08:01:40;;;;;;;11.15;4.22;;;12.90;99.90;;;;;;5056053;28;25094;-77
2022/11/04 08:04:06;;;;;;;15.25;4.15;;;13.00;99.90;;;;;;5054940;28;25135;-74
2022/11/04 08:06:32;;;;;;;11.02;3.85;;;13.00;99.90;;;;;;5058875;28;25080;-73
2022/11/04 08:08:58;;;;;;;12.18;3.83;;;13.00;99.90;;;;;;5058197;28;25127;-74
2022/11/04 08:11:27;;;;;;;11.02;4.40;;;13.10;99.90;;;;;;5061693;28;25062;-78
2022/11/04 08:13:53;;;;;;;13.02;4.32;;;13.00;99.90;;;;;;5060170;28;25130;-75
2022/11/04 08:16:22;;;;;;;10.90;4.30;;;13.10;99.90;;;;;;5054155;28;25165;-75
2022/11/04 08:18:50;;;;;;;10.48;4.38;;;13.20;99.90;;;;;;5053444;28;25146;-75
2022/11/04 08:21:16;;;;;;;9.82;4.03;;;13.40;99.90;;;;;;5060057;28;25139;-76
2022/11/04 08:23:42;;;;;;;8.98;3.92;;;13.30;99.90;;;;;;5056806;28;25072;-75
2022/11/04 08:26:18;;;;;;;8.90;4.13;;;13.20;99.90;;;;;;5056267;28;25065;-75
2022/11/04 08:28:44;;;;;;;15.18;4.88;;;13.00;99.90;;;;;;5054578;28;25093;-76
2022/11/04 08:31:14;;;;;;;10.93;5.50;;;12.70;99.90;;;;;;5055653;28;25065;-75
2022/11/04 08:33:40;;;;;;;13.38;5.05;;;12.80;99.90;;;;;;5042811;28;25146;-78
2022/11/04 08:36:23;;;;;;;13.00;4.72;;;12.90;99.90;;;;;;5056908;28;25064;-78
2022/11/04 08:38:49;;;;;;;16.15;5.35;;;13.10;99.90;;;;;;5066891;28;25090;-76
2022/11/04 08:41:18;;;;;;;15.00;4.72;;;13.00;99.90;;;;;;5056752;28;25058;-77
2022/11/04 08:43:44;;;;;;;11.10;4.43;;;13.00;99.90;;;;;;5061226;28;25127;-73
2022/11/04 08:46:10;;;;;;;13.35;4.60;;;13.20;99.90;;;;;;5058420;28;25075;-78
2022/11/04 08:48:38;;;;;;;19.15;5.40;;;13.20;99.90;;;;;;5061150;28;25061;-78
2022/11/04 08:51:06;;;;;;;12.80;4.90;;;13.30;99.90;;;;;;5065290;28;25058;-74
2022/11/04 08:53:32;;;;;;;15.15;4.82;;;13.40;99.90;;;;;;5057091;28;25159;-74
2022/11/04 08:55:57;;;;;;;12.55;4.53;;;13.40;99.90;;;;;;5044506;28;25162;-75
2022/11/04 08:58:23;;;;;;;12.63;4.57;;;13.60;99.90;;;;;;5058870;28;25100;-74
2022/11/04 09:00:50;;;;;;;10.85;4.40;;;13.40;99.90;;;;;;5061983;28;25052;-78
2022/11/04 09:03:15;;;;;;;10.73;4.75;;;13.40;99.90;;;;;;5054187;28;25161;-74
2022/11/04 09:05:46;;;;;;;12.93;4.72;;;13.50;99.90;;;;;;5057236;28;25059;-77
2022/11/04 09:08:16;;;;;;;12.27;4.57;;;13.50;99.90;;;;;;5061064;28;25060;-75
2022/11/04 09:10:43;;;;;;;11.68;4.97;;;13.20;99.90;;;;;;5055121;28;25083;-75
2022/11/04 09:13:10;;;;;;;14.77;5.43;;;13.40;99.90;;;;;;5061844;28;25101;-77
2022/11/04 09:15:37;;;;;;;14.55;5.00;;;13.30;99.90;;;;;;5062054;28;25073;-75
2022/11/04 09:18:03;;;;;;;11.05;4.55;;;13.10;99.90;;;;;;5062974;28;25078;-78
2022/11/04 09:20:28;;;;;;;18.48;4.60;;;13.00;99.90;;;;;;5059588;28;25100;-73
2022/11/04 09:22:57;;;;;;;9.40;4.70;;;12.90;99.90;;;;;;5064747;28;25159;-74
2022/11/04 09:25:22;;;;;;;13.15;5.50;;;13.00;99.90;;;;;;5065894;28;25075;-79
2022/11/04 09:27:48;;;;;;;15.38;5.10;;;13.30;99.90;;;;;;5050610;28;25122;-74
2022/11/04 09:30:14;;;;;;;15.25;4.63;;;13.20;99.90;;;;;;5065799;28;25074;-79
2022/11/04 09:32:40;;;;;;;13.40;5.18;;;13.10;99.90;;;;;;5064338;28;25104;-78
2022/11/04 09:35:06;;;;;;;17.95;6.30;;;13.10;99.90;;;;;;5062302;28;25057;-76
2022/11/04 09:37:31;;;;;;;16.67;5.85;;;12.90;99.90;;;;;;5065858;28;25076;-77
2022/11/04 09:39:57;;;;;;;8.23;4.47;;;12.80;99.90;;;;;;5066838;28;25052;-75
2022/11/04 09:42:48;;;;;;;15.43;4.95;;;12.90;99.90;;;;;;5065128;28;25084;-76
2022/11/04 09:45:17;;;;;;;12.05;4.97;;;13.00;99.90;;;;;;5063339;28;25069;-74
2022/11/04 09:47:46;;;;;;;14.68;4.72;;;13.00;99.90;;;;;;5061661;28;25079;-73
2022/11/04 09:50:28;;;;;;;19.77;5.53;;;13.10;99.90;;;;;;5074144;28;25140;-74
2022/11/04 09:53:00;;;;;;;16.63;5.77;;;13.20;99.90;;;;;;5050286;28;25076;-78
2022/11/04 09:55:38;;;;;;;;;;;13.10;99.90;;;;;;5060834;28;25070;-74
2022/11/04 09:58:04;;;;;;;16.48;5.35;;;13.10;99.90;;;;;;5060211;28;25087;-74
2022/11/04 10:00:35;;;;;;;18.15;7.15;;;13.10;99.90;;;;;;5064904;28;25052;-74
2022/11/04 10:03:18;;;;;;;22.60;6.67;;;12.90;99.90;;;;;;5064821;28;25178;-74
2022/11/04 10:06:00;;;;;;;14.27;5.93;;;12.90;99.90;;;;;;5071758;28;25077;-76
2022/11/04 10:09:04;;;;;;;16.38;6.22;;;13.10;99.90;;;;;;5060334;28;25058;-74
2022/11/04 10:11:44;;;;;;;15.15;5.57;;;13.50;99.90;;;;;;4952531;28;25060;-78
2022/11/04 10:14:44;;;;;;;18.00;5.93;;;13.90;99.90;;;;;;4960363;28;25148;-75
2022/11/04 10:17:31;;;;;;;13.23;5.35;;;13.80;99.90;;;;;;5016046;28;25129;-76
2022/11/04 10:20:35;;;;;;;14.80;7.13;;;14.10;99.90;;;;;;5060341;28;25046;-76
2022/11/04 10:23:38;;;;;;;16.92;7.43;;;14.40;99.90;;;;;;5066661;28;25082;-76
2022/11/04 10:26:09;;;;;;;10.98;5.50;;;14.70;99.90;;;;;;5060634;28;25098;-76
2022/11/04 10:28:41;;;;;;;15.98;6.70;;;14.70;99.90;;;;;;5061568;28;25061;-74
2022/11/04 10:31:13;;;;;;;9.57;5.57;;;14.40;99.90;;;;;;5060621;28;25062;-76
2022/11/04 10:33:44;;;;;;;12.75;6.38;;;14.30;99.90;;;;;;5066762;28;25066;-75
2022/11/04 10:36:11;;;;;;;13.00;5.17;;;14.20;99.90;;;;;;5050561;28;25064;-78
2022/11/04 10:38:51;;;;;;;14.63;5.78;;;14.20;99.90;;;;;;5062805;28;25097;-76
2022/11/04 10:41:28;;;;;;;12.27;5.65;;;14.30;99.90;;;;;;5062075;28;25086;-74
2022/11/04 10:44:16;;;;;;;12.75;5.60;;;14.40;99.90;;;;;;5066855;28;25053;-76
2022/11/04 10:47:01;;;;;;;14.30;5.40;;;14.20;99.90;;;;;;5050601;28;25071;-78
2022/11/04 10:49:37;;;;;;;11.70;4.63;;;14.00;99.90;;;;;;5059234;28;25048;-78
2022/11/04 10:52:05;;;;;;;9.98;5.07;;;13.70;99.90;;;;;;5057363;28;25067;-74
2022/11/04 10:54:39;;;;;;;7.55;4.20;;;13.70;99.90;;;;;;5069186;28;25102;-77
2022/11/04 10:57:05;;;;;;;13.27;5.07;;;13.70;99.90;;;;;;5060098;28;25067;-74
2022/11/04 10:59:54;;;;;;;7.38;4.28;;;14.00;99.90;;;;;;5067035;28;25145;-75
2022/11/04 11:02:35;;;;;;;14.07;4.82;;;14.00;99.90;;;;;;5065829;28;25081;-73
2022/11/04 11:05:16;;;;;;;15.15;5.07;;;14.20;99.90;;;;;;5062838;28;25065;-76
2022/11/04 11:07:43;;;;;;;12.95;5.32;;;14.10;99.90;;;;;;5065371;28;25063;-76
2022/11/04 11:10:22;;;;;;;9.68;4.28;;;13.90;99.90;;;;;;5064732;28;25078;-77
2022/11/04 11:13:23;;;;;;;11.90;4.43;;;13.90;99.90;;;;;;5073452;28;25071;-76
2022/11/04 11:16:07;;;;;;;8.07;4.35;;;14.00;99.90;;;;;;5065041;28;25099;-79
2022/11/04 11:18:33;;;;;;;10.20;4.32;;;13.90;99.90;;;;;;5066874;28;25069;-74
2022/11/04 11:21:10;;;;;;;7.57;4.70;;;13.60;99.90;;;;;;5062603;28;25078;-75
2022/11/04 11:23:42;;;;;;;10.90;4.85;;;13.40;99.90;;;;;;5070813;28;25076;-75
2022/11/04 11:26:11;;;;;;;14.60;5.50;;;13.30;99.90;;;;;;5061927;28;25056;-75
2022/11/04 11:28:39;;;;;;;13.18;4.85;;;13.20;99.90;;;;;;5059276;28;25082;-75
2022/11/04 11:31:17;;;;;;;14.18;5.30;;;13.40;99.90;;;;;;5056771;28;25123;-75
2022/11/04 11:33:56;;;;;;;13.30;4.72;;;13.50;99.90;;;;;;5059053;28;25076;-76
2022/11/04 11:36:29;;;;;;;11.40;4.95;;;13.30;99.90;;;;;;5053782;28;25097;-76
2022/11/04 11:39:12;;;;;;;9.07;4.80;;;13.20;99.90;;;;;;5064669;28;25154;-73
2022/11/04 11:42:15;;;;;;;12.73;4.68;;;13.20;99.90;;;;;;5062093;28;25128;-75
2022/11/04 11:44:47;;;;;;;10.27;4.22;;;13.10;99.90;;;;;;5071815;28;25101;-76
2022/11/04 11:47:37;;;;;;;11.30;4.30;;;13.30;99.90;;;;;;5070998;28;25134;-75
2022/11/04 11:50:27;;;;;;;8.45;4.07;;;13.50;99.90;;;;;;5067557;28;25160;-76
2022/11/04 11:53:05;;;;;;;13.35;4.30;;;13.30;99.90;;;;;;5064702;28;25112;-76
2022/11/04 11:55:35;;;;;;;9.73;4.75;;;13.20;99.90;;;;;;5064021;28;25059;-75
2022/11/04 11:58:15;;;;;;;6.53;3.95;;;13.40;99.90;;;;;;5065821;28;25164;-74
2022/11/04 12:00:49;;;;;;;14.38;4.50;;;13.50;99.90;;;;;;5061584;28;25078;-76
2022/11/04 12:03:39;;;;;;;10.20;4.90;;;13.40;99.90;;;;;;5062493;28;25066;-77
2022/11/04 12:06:40;;;;;;;15.45;4.65;;;13.40;99.90;;;;;;5058973;28;25066;-75
2022/11/04 12:09:30;;;;;;;18.95;3.80;;;13.40;99.90;;;;;;5050719;28;25073;-74
2022/11/04 12:12:37;;;;;;;14.13;4.88;;;13.70;99.90;;;;;;5060057;28;25060;-77
2022/11/04 12:15:50;;;;;;;10.55;3.65;;;13.60;99.90;;;;;;5074061;28;25062;-76
2022/11/04 12:18:37;;;;;;;13.68;3.85;;;13.60;99.90;;;;;;4987459;28;25095;-78
2022/11/04 12:21:20;;;;;;;10.82;3.70;;;13.50;99.90;;;;;;5061628;28;25085;-74
2022/11/04 12:24:18;;;;;;;7.93;3.30;;;13.40;99.90;;;;;;5059098;28;25136;-75
2022/11/04 12:26:53;;;;;;;8.13;3.92;;;13.40;99.90;;;;;;5055499;28;25113;-75
2022/11/04 12:29:59;;;;;;;8.68;3.40;;;13.60;99.90;;;;;;5062889;28;25129;-75
2022/11/04 12:32:25;;;;;;;10.45;3.28;;;13.70;99.90;;;;;;5058291;28;25150;-77
2022/11/04 12:35:18;;;;;;;9.02;3.00;;;14.20;99.90;;;;;;5063760;28;25105;-75
2022/11/04 12:38:27;;;;;;;10.55;2.97;;;14.20;99.90;;;;;;5057183;28;25099;-75
2022/11/04 12:40:58;;;;;;;12.63;3.50;;;13.80;99.90;;;;;;5044058;28;25106;-74
2022/11/04 12:43:52;;;;;;;5.90;2.35;;;13.40;99.90;;;;;;5062396;28;25091;-75
2022/11/04 12:46:27;;;;;;;5.32;2.03;;;13.50;99.90;;;;;;5057874;28;25060;-75
2022/11/04 12:49:21;;;;;;;8.50;2.00;;;13.40;99.90;;;;;;5063013;28;25100;-75
2022/11/04 12:52:06;;;;;;;6.30;2.05;;;13.90;99.90;;;;;;5051941;28;25091;-77
2022/11/04 12:55:05;;;;;;;4.30;1.17;;;13.40;99.90;;;;;;5056923;28;25073;-75
2022/11/04 12:57:51;;;;;;;2.33;1.20;;;13.10;99.90;;;;;;5052626;28;25102;-74
2022/11/04 13:00:26;;;;;;;3.42;1.23;;;12.80;99.90;;;;;;5012925;28;25061;-75
2022/11/04 13:03:00;;;;;;;3.75;1.05;;;12.80;99.90;;;;;;5045127;28;25071;-78
2022/11/04 13:05:35;;;;;;;3.60;1.60;;;12.80;99.90;;;;;;5041167;28;25068;-80
2022/11/04 13:08:10;;;;;;;1.73;1.50;;;12.70;99.90;;;;;;5058261;28;25052;-77
2022/11/04 13:10:38;;;;;;;3.10;1.60;;;12.80;99.90;;;;;;5047636;28;25059;-76
2022/11/04 13:13:07;;;;;;;4.75;1.83;;;12.80;99.90;;;;;;5045745;28;25106;-74
2022/11/04 13:15:45;;;;;;;3.17;0.93;;;12.70;99.90;;;;;;5057417;28;25054;-76
2022/11/04 13:18:15;;;;;;;2.10;0.70;;;12.50;99.90;;;;;;5061940;28;25141;-74
2022/11/04 13:21:08;;;;;;;0.98;0.63;;;12.50;99.90;;;;;;5069052;28;25128;-76
2022/11/04 13:23:56;;;;;;;0.80;0.73;;;12.50;99.90;;;;;;5065154;28;25048;-74
2022/11/04 13:26:21;;;;;;;0.77;0.50;;;12.50;99.90;;;;;;5053548;28;25136;-73
2022/11/04 13:29:03;;;;;;;9.63;1.58;;;12.40;99.90;;;;;;5059676;28;25129;-76
2022/11/04 13:31:46;;;;;;;6.05;0.77;;;12.40;99.90;;;;;;5065747;28;25082;-78
2022/11/04 13:34:38;;;;;;;2.63;0.70;;;12.30;99.90;;;;;;5066774;28;25054;-79
2022/11/04 13:37:10;;;;;;;1.00;0.60;;;12.20;99.90;;;;;;5045657;28;25049;-74
2022/11/04 13:39:48;;;;;;;3.25;0.60;;;12.30;99.90;;;;;;5061338;28;25139;-77
2022/11/04 13:42:27;;;;;;;1.50;0.60;;;12.20;99.90;;;;;;5038858;28;25055;-77